sensor_id;sensor_type;location;lat;lon;timestamp;pressure;altitude;pressure_sealevel;temperature;humidity
54512;BME280;40419;47.438;19.026;2023-01-25T00:00:54;101379.84;;;1.47;100.00
54512;BME280;40419;47.438;19.026;2023-01-25T00:03:25;101385.28;;;1.45;100.00
54512;BME280;40419;47.438;19.026;2023-01-25T00:05:57;101380.25;;;1.53;100.00
54512;BME280;40419;47.438;19.026;2023-01-25T00:08:28;101385.78;;;1.37;100.00
54512;BME280;40419;47.438;19.026;2023-01-25T00:10:58;101381.94;;;1.16;100.00
54512;BME280;40419;47.438;19.026;2023-01-25T00:13:26;101384.63;;;1.29;100.00
54512;BME280;40419;47.438;19.026;2023-01-25T00:15:52;101388.56;;;1.36;100.00
54512;BME280;40419;47.438;19.026;2023-01-25T00:18:17;101388.59;;;1.49;100.00
54512;BME280;40419;47.438;19.026;2023-01-25T00:20:43;101396.78;;;1.20;100.00
54512;BME280;40419;47.438;19.026;2023-01-25T00:23:08;101404.31;;;1.00;100.00
54512;BME280;40419;47.438;19.026;2023-01-25T00:25:39;101408.13;;;0.96;100.00
54512;BME280;40419;47.438;19.026;2023-01-25T00:28:07;101405.56;;;0.95;100.00
54512;BME280;40419;47.438;19.026;2023-01-25T00:30:35;101394.53;;;1.14;100.00
54512;BME280;40419;47.438;19.026;2023-01-25T00:35:47;101397.31;;;1.25;100.00
54512;BME280;40419;47.438;19.026;2023-01-25T00:38:33;101402.56;;;1.39;100.00
54512;BME280;40419;47.438;19.026;2023-01-25T00:41:01;101401.59;;;1.28;100.00
54512;BME280;40419;47.438;19.026;2023-01-25T00:43:29;101392.00;;;1.38;100.00
54512;BME280;40419;47.438;19.026;2023-01-25T00:46:01;101399.69;;;1.42;100.00
54512;BME280;40419;47.438;19.026;2023-01-25T00:48:26;101391.38;;;1.47;100.00
54512;BME280;40419;47.438;19.026;2023-01-25T00:50:59;101389.97;;;1.41;100.00
54512;BME280;40419;47.438;19.026;2023-01-25T00:53:25;101398.19;;;1.38;100.00
54512;BME280;40419;47.438;19.026;2023-01-25T00:55:53;101393.91;;;1.36;100.00
54512;BME280;40419;47.438;19.026;2023-01-25T00:58:19;101394.34;;;1.42;100.00
54512;BME280;40419;47.438;19.026;2023-01-25T01:00:47;101400.84;;;1.38;100.00
54512;BME280;40419;47.438;19.026;2023-01-25T01:03:12;101409.69;;;1.26;100.00
54512;BME280;40419;47.438;19.026;2023-01-25T01:05:43;101409.16;;;1.21;100.00
54512;BME280;40419;47.438;19.026;2023-01-25T01:08:09;101417.13;;;1.08;100.00
54512;BME280;40419;47.438;19.026;2023-01-25T01:10:35;101403.06;;;1.19;100.00
54512;BME280;40419;47.438;19.026;2023-01-25T01:13:00;101414.25;;;1.11;100.00
54512;BME280;40419;47.438;19.026;2023-01-25T01:15:34;101416.81;;;1.13;100.00
54512;BME280;40419;47.438;19.026;2023-01-25T01:18:01;101422.41;;;1.22;100.00
54512;BME280;40419;47.438;19.026;2023-01-25T01:20:29;101418.53;;;1.14;100.00
54512;BME280;40419;47.438;19.026;2023-01-25T01:22:59;101421.38;;;0.98;100.00
54512;BME280;40419;47.438;19.026;2023-01-25T01:25:24;101418.47;;;0.88;100.00
54512;BME280;40419;47.438;19.026;2023-01-25T01:27:52;101414.31;;;0.57;100.00
54512;BME280;40419;47.438;19.026;2023-01-25T01:30:21;101414.16;;;1.00;100.00
54512;BME280;40419;47.438;19.026;2023-01-25T01:32:52;101415.94;;;0.99;100.00
54512;BME280;40419;47.438;19.026;2023-01-25T01:35:17;101414.94;;;0.87;100.00
54512;BME280;40419;47.438;19.026;2023-01-25T01:37:45;101414.09;;;0.87;100.00
54512;BME280;40419;47.438;19.026;2023-01-25T01:40:17;101410.47;;;0.88;100.00
54512;BME280;40419;47.438;19.026;2023-01-25T01:43:00;101416.31;;;0.80;100.00
54512;BME280;40419;47.438;19.026;2023-01-25T01:50:52;101420.28;;;0.19;100.00
54512;BME280;40419;47.438;19.026;2023-01-25T01:53:22;101415.03;;;0.31;100.00
54512;BME280;40419;47.438;19.026;2023-01-25T01:55:56;101407.41;;;0.67;100.00
54512;BME280;40419;47.438;19.026;2023-01-25T01:58:24;101411.50;;;0.73;100.00
54512;BME280;40419;47.438;19.026;2023-01-25T02:00:50;101410.16;;;0.93;100.00
54512;BME280;40419;47.438;19.026;2023-01-25T02:03:22;101402.88;;;0.82;100.00
54512;BME280;40419;47.438;19.026;2023-01-25T02:06:15;101403.19;;;0.77;100.00
54512;BME280;40419;47.438;19.026;2023-01-25T02:08:46;101403.53;;;0.58;100.00
54512;BME280;40419;47.438;19.026;2023-01-25T02:11:14;101396.53;;;0.43;100.00
54512;BME280;40419;47.438;19.026;2023-01-25T02:13:45;101390.00;;;0.61;100.00
54512;BME280;40419;47.438;19.026;2023-01-25T02:16:18;101388.44;;;0.72;100.00
54512;BME280;40419;47.438;19.026;2023-01-25T02:18:52;101385.16;;;0.81;100.00
54512;BME280;40419;47.438;19.026;2023-01-25T02:21:21;101393.97;;;0.68;100.00
54512;BME280;40419;47.438;19.026;2023-01-25T02:24:00;101387.88;;;0.66;100.00
54512;BME280;40419;47.438;19.026;2023-01-25T02:26:29;101380.69;;;0.54;100.00
54512;BME280;40419;47.438;19.026;2023-01-25T02:28:59;101386.03;;;0.54;100.00
54512;BME280;40419;47.438;19.026;2023-01-25T02:31:29;101390.31;;;0.15;100.00
54512;BME280;40419;47.438;19.026;2023-01-25T02:33:58;101381.22;;;-0.24;100.00
54512;BME280;40419;47.438;19.026;2023-01-25T02:36:29;101380.84;;;-0.32;100.00
54512;BME280;40419;47.438;19.026;2023-01-25T02:39:03;101389.41;;;-0.42;100.00
54512;BME280;40419;47.438;19.026;2023-01-25T02:41:37;101390.16;;;-0.40;100.00
54512;BME280;40419;47.438;19.026;2023-01-25T02:44:06;101365.19;;;-0.23;100.00
54512;BME280;40419;47.438;19.026;2023-01-25T02:46:34;101363.41;;;0.05;100.00
54512;BME280;40419;47.438;19.026;2023-01-25T02:49:04;101363.00;;;-0.45;100.00
54512;BME280;40419;47.438;19.026;2023-01-25T02:51:36;101354.91;;;-0.43;100.00
54512;BME280;40419;47.438;19.026;2023-01-25T02:54:04;101350.41;;;-0.14;100.00
54512;BME280;40419;47.438;19.026;2023-01-25T02:56:30;101350.31;;;0.29;100.00
54512;BME280;40419;47.438;19.026;2023-01-25T02:58:56;101341.84;;;0.37;100.00
54512;BME280;40419;47.438;19.026;2023-01-25T03:01:22;101349.53;;;0.42;100.00
54512;BME280;40419;47.438;19.026;2023-01-25T03:03:47;101353.34;;;0.38;100.00
54512;BME280;40419;47.438;19.026;2023-01-25T03:06:17;101349.53;;;0.42;100.00
54512;BME280;40419;47.438;19.026;2023-01-25T03:08:42;101348.00;;;0.38;100.00
54512;BME280;40419;47.438;19.026;2023-01-25T03:11:14;101352.25;;;0.27;100.00
54512;BME280;40419;47.438;19.026;2023-01-25T03:13:42;101344.28;;;-0.02;100.00
54512;BME280;40419;47.438;19.026;2023-01-25T03:16:11;101355.94;;;-0.60;100.00
54512;BME280;40419;47.438;19.026;2023-01-25T03:18:42;101345.19;;;-0.44;100.00
54512;BME280;40419;47.438;19.026;2023-01-25T03:21:13;101344.44;;;-0.17;100.00
54512;BME280;40419;47.438;19.026;2023-01-25T03:23:53;101346.06;;;-0.15;100.00
54512;BME280;40419;47.438;19.026;2023-01-25T03:26:22;101344.91;;;-0.25;100.00
54512;BME280;40419;47.438;19.026;2023-01-25T03:29:14;101346.94;;;-0.43;100.00
54512;BME280;40419;47.438;19.026;2023-01-25T03:31:43;101340.94;;;-0.32;100.00
54512;BME280;40419;47.438;19.026;2023-01-25T03:34:11;101346.50;;;-0.08;100.00
54512;BME280;40419;47.438;19.026;2023-01-25T03:36:40;101335.16;;;0.03;100.00
54512;BME280;40419;47.438;19.026;2023-01-25T03:39:06;101351.34;;;-0.01;100.00
54512;BME280;40419;47.438;19.026;2023-01-25T03:41:39;101334.28;;;0.16;100.00
54512;BME280;40419;47.438;19.026;2023-01-25T03:44:11;101341.69;;;0.26;100.00
54512;BME280;40419;47.438;19.026;2023-01-25T03:46:41;101344.34;;;0.26;100.00
54512;BME280;40419;47.438;19.026;2023-01-25T03:49:09;101336.84;;;0.18;100.00
54512;BME280;40419;47.438;19.026;2023-01-25T03:51:36;101346.22;;;0.38;100.00
54512;BME280;40419;47.438;19.026;2023-01-25T03:54:03;101343.28;;;0.28;100.00
54512;BME280;40419;47.438;19.026;2023-01-25T03:56:33;101339.88;;;0.26;100.00
54512;BME280;40419;47.438;19.026;2023-01-25T03:59:10;101337.22;;;0.12;100.00
54512;BME280;40419;47.438;19.026;2023-01-25T04:01:36;101343.75;;;0.35;100.00
54512;BME280;40419;47.438;19.026;2023-01-25T04:04:07;101338.88;;;0.42;100.00
54512;BME280;40419;47.438;19.026;2023-01-25T04:06:39;101333.34;;;0.45;100.00
54512;BME280;40419;47.438;19.026;2023-01-25T04:09:07;101339.50;;;0.45;100.00
54512;BME280;40419;47.438;19.026;2023-01-25T04:11:38;101338.63;;;0.32;100.00
54512;BME280;40419;47.438;19.026;2023-01-25T04:14:04;101336.78;;;0.05;100.00
54512;BME280;40419;47.438;19.026;2023-01-25T04:16:38;101347.16;;;0.10;100.00
54512;BME280;40419;47.438;19.026;2023-01-25T04:19:24;101346.91;;;0.27;100.00
54512;BME280;40419;47.438;19.026;2023-01-25T04:21:50;101337.66;;;0.33;100.00
54512;BME280;40419;47.438;19.026;2023-01-25T04:24:22;101356.19;;;0.07;100.00
54512;BME280;40419;47.438;19.026;2023-01-25T04:26:48;101354.63;;;0.17;100.00
54512;BME280;40419;47.438;19.026;2023-01-25T04:29:18;101350.94;;;0.20;100.00
54512;BME280;40419;47.438;19.026;2023-01-25T04:31:46;101342.56;;;0.12;100.00
54512;BME280;40419;47.438;19.026;2023-01-25T04:34:13;101349.59;;;0.27;100.00
54512;BME280;40419;47.438;19.026;2023-01-25T04:36:41;101351.19;;;0.30;100.00
54512;BME280;40419;47.438;19.026;2023-01-25T04:39:07;101350.13;;;0.32;100.00
54512;BME280;40419;47.438;19.026;2023-01-25T04:41:34;101350.16;;;0.45;100.00
54512;BME280;40419;47.438;19.026;2023-01-25T04:44:05;101350.22;;;0.31;100.00
54512;BME280;40419;47.438;19.026;2023-01-25T04:46:30;101348.88;;;0.11;100.00
54512;BME280;40419;47.438;19.026;2023-01-25T04:49:00;101359.06;;;0.31;100.00
54512;BME280;40419;47.438;19.026;2023-01-25T04:51:29;101352.19;;;0.14;100.00
54512;BME280;40419;47.438;19.026;2023-01-25T04:53:59;101342.25;;;0.31;100.00
54512;BME280;40419;47.438;19.026;2023-01-25T04:56:28;101350.31;;;0.29;100.00
54512;BME280;40419;47.438;19.026;2023-01-25T04:58:56;101348.88;;;0.38;100.00
54512;BME280;40419;47.438;19.026;2023-01-25T05:01:24;101353.34;;;0.38;100.00
54512;BME280;40419;47.438;19.026;2023-01-25T05:03:51;101350.03;;;0.34;100.00
54512;BME280;40419;47.438;19.026;2023-01-25T05:06:31;101348.00;;;0.38;100.00
54512;BME280;40419;47.438;19.026;2023-01-25T05:09:02;101346.81;;;0.29;100.00
54512;BME280;40419;47.438;19.026;2023-01-25T05:11:32;101353.75;;;0.31;100.00
54512;BME280;40419;47.438;19.026;2023-01-25T05:14:07;101363.47;;;0.18;100.00
54512;BME280;40419;47.438;19.026;2023-01-25T05:16:35;101357.94;;;0.21;100.00
54512;BME280;40419;47.438;19.026;2023-01-25T05:19:02;101357.06;;;0.35;100.00
54512;BME280;40419;47.438;19.026;2023-01-25T05:21:35;101359.84;;;0.33;100.00
54512;BME280;40419;47.438;19.026;2023-01-25T05:24:21;101355.25;;;0.35;100.00
54512;BME280;40419;47.438;19.026;2023-01-25T05:26:47;101360.38;;;0.39;100.00
54512;BME280;40419;47.438;19.026;2023-01-25T05:29:27;101362.50;;;0.33;100.00
54512;BME280;40419;47.438;19.026;2023-01-25T05:32:02;101359.28;;;0.56;100.00
54512;BME280;40419;47.438;19.026;2023-01-25T05:34:28;101359.06;;;0.59;100.00
54512;BME280;40419;47.438;19.026;2023-01-25T05:36:53;101357.88;;;0.50;100.00
54512;BME280;40419;47.438;19.026;2023-01-25T05:39:20;101356.47;;;0.44;100.00
54512;BME280;40419;47.438;19.026;2023-01-25T05:41:48;101368.91;;;0.44;100.00
54512;BME280;40419;47.438;19.026;2023-01-25T05:44:16;101362.13;;;0.52;100.00
54512;BME280;40419;47.438;19.026;2023-01-25T05:46:48;101352.56;;;0.50;100.00
54512;BME280;40419;47.438;19.026;2023-01-25T05:49:16;101351.16;;;0.57;100.00
54512;BME280;40419;47.438;19.026;2023-01-25T05:51:45;101354.00;;;0.68;100.00
54512;BME280;40419;47.438;19.026;2023-01-25T05:54:13;101356.31;;;0.60;100.00
54512;BME280;40419;47.438;19.026;2023-01-25T05:56:50;101355.66;;;0.29;100.00
54512;BME280;40419;47.438;19.026;2023-01-25T05:59:17;101357.81;;;0.37;100.00
54512;BME280;40419;47.438;19.026;2023-01-25T06:01:44;101373.69;;;0.53;100.00
54512;BME280;40419;47.438;19.026;2023-01-25T06:04:16;101357.38;;;0.58;100.00
54512;BME280;40419;47.438;19.026;2023-01-25T06:06:44;101367.56;;;0.51;100.00
54512;BME280;40419;47.438;19.026;2023-01-25T06:09:12;101359.38;;;0.54;100.00
54512;BME280;40419;47.438;19.026;2023-01-25T06:11:38;101368.44;;;0.51;100.00
54512;BME280;40419;47.438;19.026;2023-01-25T06:14:06;101364.47;;;0.44;100.00
54512;BME280;40419;47.438;19.026;2023-01-25T06:16:32;101363.91;;;0.39;100.00
54512;BME280;40419;47.438;19.026;2023-01-25T06:19:26;101369.78;;;0.44;100.00
54512;BME280;40419;47.438;19.026;2023-01-25T06:22:06;101372.06;;;0.50;100.00
54512;BME280;40419;47.438;19.026;2023-01-25T06:24:33;101371.03;;;0.39;100.00
54512;BME280;40419;47.438;19.026;2023-01-25T06:27:01;101377.00;;;0.42;100.00
54512;BME280;40419;47.438;19.026;2023-01-25T06:29:26;101384.13;;;0.56;100.00
54512;BME280;40419;47.438;19.026;2023-01-25T06:31:54;101379.25;;;0.63;100.00
54512;BME280;40419;47.438;19.026;2023-01-25T06:34:23;101386.53;;;0.74;100.00
54512;BME280;40419;47.438;19.026;2023-01-25T06:36:52;101388.56;;;0.70;100.00
54512;BME280;40419;47.438;19.026;2023-01-25T06:39:18;101385.47;;;0.76;100.00
54512;BME280;40419;47.438;19.026;2023-01-25T06:41:46;101385.69;;;0.73;100.00
54512;BME280;40419;47.438;19.026;2023-01-25T06:44:11;101388.88;;;0.78;100.00
54512;BME280;40419;47.438;19.026;2023-01-25T06:46:39;101388.56;;;0.83;100.00
54512;BME280;40419;47.438;19.026;2023-01-25T06:49:05;101384.31;;;0.80;100.00
54512;BME280;40419;47.438;19.026;2023-01-25T06:51:30;101390.50;;;0.81;100.00
54512;BME280;40419;47.438;19.026;2023-01-25T06:53:56;101391.34;;;0.81;100.00
54512;BME280;40419;47.438;19.026;2023-01-25T06:56:21;101383.03;;;0.86;100.00
54512;BME280;40419;47.438;19.026;2023-01-25T06:58:53;101388.16;;;0.89;100.00
54512;BME280;40419;47.438;19.026;2023-01-25T07:01:21;101380.13;;;0.76;100.00
54512;BME280;40419;47.438;19.026;2023-01-25T07:03:51;101380.66;;;0.68;100.00
54512;BME280;40419;47.438;19.026;2023-01-25T07:06:20;101390.44;;;0.68;100.00
54512;BME280;40419;47.438;19.026;2023-01-25T07:08:46;101385.03;;;0.69;100.00
54512;BME280;40419;47.438;19.026;2023-01-25T07:11:15;101391.84;;;0.74;100.00
54512;BME280;40419;47.438;19.026;2023-01-25T07:13:44;101386.72;;;0.70;100.00
54512;BME280;40419;47.438;19.026;2023-01-25T07:16:18;101382.28;;;0.71;100.00
54512;BME280;40419;47.438;19.026;2023-01-25T07:18:47;101382.50;;;0.81;100.00
54512;BME280;40419;47.438;19.026;2023-01-25T07:21:17;101385.53;;;0.62;100.00
54512;BME280;40419;47.438;19.026;2023-01-25T07:23:47;101388.03;;;0.78;100.00
54512;BME280;40419;47.438;19.026;2023-01-25T07:26:22;101380.47;;;0.84;100.00
54512;BME280;40419;47.438;19.026;2023-01-25T07:28:48;101377.47;;;0.76;100.00
54512;BME280;40419;47.438;19.026;2023-01-25T07:31:18;101383.84;;;0.74;100.00
54512;BME280;40419;47.438;19.026;2023-01-25T07:33:50;101387.84;;;0.81;100.00
54512;BME280;40419;47.438;19.026;2023-01-25T07:36:18;101394.47;;;0.88;100.00
54512;BME280;40419;47.438;19.026;2023-01-25T07:38:44;101391.44;;;0.80;100.00
54512;BME280;40419;47.438;19.026;2023-01-25T07:41:10;101397.75;;;0.79;100.00
54512;BME280;40419;47.438;19.026;2023-01-25T07:43:35;101387.84;;;0.81;100.00
54512;BME280;40419;47.438;19.026;2023-01-25T07:46:05;101385.47;;;1.16;100.00
54512;BME280;40419;47.438;19.026;2023-01-25T07:48:32;101381.34;;;0.85;100.00
54512;BME280;40419;47.438;19.026;2023-01-25T07:50:59;101389.13;;;0.88;100.00
54512;BME280;40419;47.438;19.026;2023-01-25T07:53:38;101382.97;;;1.00;100.00
54512;BME280;40419;47.438;19.026;2023-01-25T07:56:05;101382.56;;;1.06;100.00
54512;BME280;40419;47.438;19.026;2023-01-25T07:58:31;101384.91;;;1.11;100.00
54512;BME280;40419;47.438;19.026;2023-01-25T08:01:13;101383.84;;;1.14;100.00
54512;BME280;40419;47.438;19.026;2023-01-25T08:03:39;101383.44;;;1.20;100.00
54512;BME280;40419;47.438;19.026;2023-01-25T08:06:07;101378.84;;;1.09;100.00
54512;BME280;40419;47.438;19.026;2023-01-25T08:08:41;101388.09;;;1.03;100.00
54512;BME280;40419;47.438;19.026;2023-01-25T08:11:18;101379.06;;;1.19;100.00
54512;BME280;40419;47.438;19.026;2023-01-25T08:13:44;101383.66;;;1.30;100.00
54512;BME280;40419;47.438;19.026;2023-01-25T08:16:15;101387.81;;;1.21;100.00
54512;BME280;40419;47.438;19.026;2023-01-25T08:18:53;101390.28;;;0.84;100.00
54512;BME280;40419;47.438;19.026;2023-01-25T08:21:22;101383.84;;;1.14;100.00
54512;BME280;40419;47.438;19.026;2023-01-25T08:23:55;101391.09;;;0.99;100.00
54512;BME280;40419;47.438;19.026;2023-01-25T08:26:26;101391.81;;;1.01;100.00
54512;BME280;40419;47.438;19.026;2023-01-25T08:28:55;101385.53;;;1.02;100.00
54512;BME280;40419;47.438;19.026;2023-01-25T08:31:30;101372.53;;;0.97;100.00
54512;BME280;40419;47.438;19.026;2023-01-25T08:34:01;101382.66;;;1.05;100.00
54512;BME280;40419;47.438;19.026;2023-01-25T08:36:32;101376.16;;;1.22;100.00
54512;BME280;40419;47.438;19.026;2023-01-25T08:39:04;101377.22;;;1.06;100.00
54512;BME280;40419;47.438;19.026;2023-01-25T08:41:31;101365.56;;;0.95;100.00
54512;BME280;40419;47.438;19.026;2023-01-25T08:44:02;101369.00;;;1.10;100.00
54512;BME280;40419;47.438;19.026;2023-01-25T08:46:31;101380.03;;;1.18;100.00
54512;BME280;40419;47.438;19.026;2023-01-25T08:48:59;101363.66;;;0.97;100.00
54512;BME280;40419;47.438;19.026;2023-01-25T08:51:27;101371.47;;;1.13;100.00
54512;BME280;40419;47.438;19.026;2023-01-25T08:53:53;101372.25;;;0.87;100.00
54512;BME280;40419;47.438;19.026;2023-01-25T08:56:21;101367.53;;;1.31;100.00
54512;BME280;40419;47.438;19.026;2023-01-25T08:58:51;101367.13;;;1.24;100.00
54512;BME280;40419;47.438;19.026;2023-01-25T09:01:20;101363.38;;;1.27;100.00
54512;BME280;40419;47.438;19.026;2023-01-25T09:03:47;101365.31;;;1.38;100.00
54512;BME280;40419;47.438;19.026;2023-01-25T09:06:17;101370.53;;;1.27;100.00
54512;BME280;40419;47.438;19.026;2023-01-25T09:08:44;101361.97;;;1.34;100.00
54512;BME280;40419;47.438;19.026;2023-01-25T09:11:18;101362.06;;;1.07;100.00
54512;BME280;40419;47.438;19.026;2023-01-25T09:13:44;101358.25;;;1.37;100.00
54512;BME280;40419;47.438;19.026;2023-01-25T09:16:12;101361.22;;;0.94;100.00
54512;BME280;40419;47.438;19.026;2023-01-25T09:18:43;101355.59;;;1.24;100.00
54512;BME280;40419;47.438;19.026;2023-01-25T09:21:16;101350.56;;;1.32;100.00
54512;BME280;40419;47.438;19.026;2023-01-25T09:23:43;101347.06;;;1.32;100.00
54512;BME280;40419;47.438;19.026;2023-01-25T09:26:12;101350.75;;;1.03;100.00
54512;BME280;40419;47.438;19.026;2023-01-25T09:28:40;101350.78;;;1.16;100.00
54512;BME280;40419;47.438;19.026;2023-01-25T09:31:08;101348.50;;;1.10;100.00
54512;BME280;40419;47.438;19.026;2023-01-25T09:34:16;101356.22;;;1.15;100.00
54512;BME280;40419;47.438;19.026;2023-01-25T09:36:42;101347.16;;;1.04;100.00
54512;BME280;40419;47.438;19.026;2023-01-25T09:39:09;101360.81;;;1.38;100.00
54512;BME280;40419;47.438;19.026;2023-01-25T09:55:40;101327.69;;;1.54;100.00
54512;BME280;40419;47.438;19.026;2023-01-25T09:58:13;101325.38;;;1.49;100.00
54512;BME280;40419;47.438;19.026;2023-01-25T10:00:44;101328.25;;;1.46;100.00
54512;BME280;40419;47.438;19.026;2023-01-25T10:03:33;101318.97;;;1.52;100.00
54512;BME280;40419;47.438;19.026;2023-01-25T10:06:03;101312.88;;;1.50;100.00
54512;BME280;40419;47.438;19.026;2023-01-25T10:11:25;101314.63;;;1.75;100.00
54512;BME280;40419;47.438;19.026;2023-01-25T10:13:51;101302.72;;;1.68;100.00
54512;BME280;40419;47.438;19.026;2023-01-25T10:17:13;101285.97;;;1.53;100.00
54512;BME280;40419;47.438;19.026;2023-01-25T10:23:08;101283.16;;;1.67;100.00
54512;BME280;40419;47.438;19.026;2023-01-25T10:30:55;101286.63;;;1.44;100.00
54512;BME280;40419;47.438;19.026;2023-01-25T10:33:27;101287.88;;;1.51;100.00
54512;BME280;40419;47.438;19.026;2023-01-25T10:35:56;101274.41;;;1.65;100.00
54512;BME280;40419;47.438;19.026;2023-01-25T10:38:39;101276.53;;;1.73;100.00
54512;BME280;40419;47.438;19.026;2023-01-25T10:41:12;101274.31;;;1.67;100.00
54512;BME280;40419;47.438;19.026;2023-01-25T10:43:45;101269.97;;;1.53;100.00
54512;BME280;40419;47.438;19.026;2023-01-25T10:46:38;101272.19;;;1.46;100.00
54512;BME280;40419;47.438;19.026;2023-01-25T10:51:53;101257.78;;;1.36;100.00
54512;BME280;40419;47.438;19.026;2023-01-25T10:54:24;101262.34;;;1.59;100.00
54512;BME280;40419;47.438;19.026;2023-01-25T10:56:52;101252.34;;;1.50;100.00
54512;BME280;40419;47.438;19.026;2023-01-25T10:59:27;101254.38;;;1.84;100.00
54512;BME280;40419;47.438;19.026;2023-01-25T11:07:42;101248.53;;;1.79;100.00
54512;BME280;40419;47.438;19.026;2023-01-25T11:15:42;101233.81;;;1.97;100.00
54512;BME280;40419;47.438;19.026;2023-01-25T11:20:40;101237.53;;;1.70;100.00
54512;BME280;40419;47.438;19.026;2023-01-25T11:23:21;101224.53;;;1.66;100.00
54512;BME280;40419;47.438;19.026;2023-01-25T11:25:50;101217.88;;;1.71;100.00
54512;BME280;40419;47.438;19.026;2023-01-25T11:28:19;101214.31;;;1.84;100.00
54512;BME280;40419;47.438;19.026;2023-01-25T11:30:46;101210.47;;;1.88;100.00
54512;BME280;40419;47.438;19.026;2023-01-25T11:33:18;101203.06;;;1.91;100.00
54512;BME280;40419;47.438;19.026;2023-01-25T11:36:12;101214.19;;;2.09;100.00
54512;BME280;40419;47.438;19.026;2023-01-25T11:38:50;101196.03;;;2.15;100.00
54512;BME280;40419;47.438;19.026;2023-01-25T11:41:27;101187.41;;;2.22;100.00
54512;BME280;40419;47.438;19.026;2023-01-25T11:55:25;101150.19;;;2.43;100.00
54512;BME280;40419;47.438;19.026;2023-01-25T12:20:16;101112.34;;;2.25;100.00
54512;BME280;40419;47.438;19.026;2023-01-25T12:25:46;101109.09;;;2.44;100.00
54512;BME280;40419;47.438;19.026;2023-01-25T12:28:19;101103.13;;;2.29;100.00
54512;BME280;40419;47.438;19.026;2023-01-25T12:30:57;101108.38;;;2.31;100.00
54512;BME280;40419;47.438;19.026;2023-01-25T12:33:33;101114.91;;;2.27;100.00
54512;BME280;40419;47.438;19.026;2023-01-25T12:36:16;101097.03;;;2.27;100.00
54512;BME280;40419;47.438;19.026;2023-01-25T12:50:03;101090.75;;;2.51;100.00
54512;BME280;40419;47.438;19.026;2023-01-25T12:52:38;101090.75;;;2.51;100.00
54512;BME280;40419;47.438;19.026;2023-01-25T12:55:15;101086.50;;;2.48;100.00
54512;BME280;40419;47.438;19.026;2023-01-25T12:58:11;101086.03;;;2.43;100.00
54512;BME280;40419;47.438;19.026;2023-01-25T13:03:28;101077.63;;;2.48;100.00
54512;BME280;40419;47.438;19.026;2023-01-25T13:11:41;101082.84;;;2.38;100.00
54512;BME280;40419;47.438;19.026;2023-01-25T13:16:43;101063.88;;;2.41;100.00
54512;BME280;40419;47.438;19.026;2023-01-25T13:21:58;101063.06;;;2.63;100.00
54512;BME280;40419;47.438;19.026;2023-01-25T13:24:30;101060.47;;;2.51;100.00
54512;BME280;40419;47.438;19.026;2023-01-25T13:31:57;101057.69;;;2.75;100.00
54512;BME280;40419;47.438;19.026;2023-01-25T13:39:51;101046.88;;;2.65;100.00
54512;BME280;40419;47.438;19.026;2023-01-25T13:42:30;101044.94;;;2.78;100.00
54512;BME280;40419;47.438;19.026;2023-01-25T13:45:03;101051.00;;;2.58;100.00
54512;BME280;40419;47.438;19.026;2023-01-25T13:50:17;101042.03;;;2.59;100.00
54512;BME280;40419;47.438;19.026;2023-01-25T13:55:41;101044.44;;;2.62;100.00
54512;BME280;40419;47.438;19.026;2023-01-25T14:00:35;101043.09;;;2.56;100.00
54512;BME280;40419;47.438;19.026;2023-01-25T14:03:04;101044.31;;;2.75;100.00
54512;BME280;40419;47.438;19.026;2023-01-25T14:05:29;101033.25;;;2.68;100.00
54512;BME280;40419;47.438;19.026;2023-01-25T14:07:56;101037.78;;;2.68;100.00
54512;BME280;40419;47.438;19.026;2023-01-25T14:10:24;101031.34;;;2.59;100.00
54512;BME280;40419;47.438;19.026;2023-01-25T14:12:57;101021.00;;;2.54;100.00
54512;BME280;40419;47.438;19.026;2023-01-25T14:15:28;101031.56;;;2.44;100.00
54512;BME280;40419;47.438;19.026;2023-01-25T14:18:16;101028.75;;;2.69;100.00
54512;BME280;40419;47.438;19.026;2023-01-25T14:20:47;101031.56;;;2.56;100.00
54512;BME280;40419;47.438;19.026;2023-01-25T14:25:50;101031.22;;;2.60;100.00
54512;BME280;40419;47.438;19.026;2023-01-25T14:28:17;101037.91;;;2.43;100.00
54512;BME280;40419;47.438;19.026;2023-01-25T14:30:42;101038.38;;;2.48;100.00
54512;BME280;40419;47.438;19.026;2023-01-25T14:33:24;101025.72;;;2.51;100.00
54512;BME280;40419;47.438;19.026;2023-01-25T14:35:51;101029.25;;;2.40;100.00
54512;BME280;40419;47.438;19.026;2023-01-25T14:40:50;101028.41;;;2.62;100.00
54512;BME280;40419;47.438;19.026;2023-01-25T14:43:21;101033.28;;;2.45;100.00
54512;BME280;40419;47.438;19.026;2023-01-25T14:45:49;101027.44;;;2.63;100.00
54512;BME280;40419;47.438;19.026;2023-01-25T14:48:34;101032.66;;;2.53;100.00
54512;BME280;40419;47.438;19.026;2023-01-25T14:51:08;101028.53;;;2.49;100.00
54512;BME280;40419;47.438;19.026;2023-01-25T14:53:41;101025.38;;;2.55;100.00
54512;BME280;40419;47.438;19.026;2023-01-25T14:56:34;101022.59;;;2.34;100.00
54512;BME280;40419;47.438;19.026;2023-01-25T14:59:02;101016.88;;;2.50;100.00
54512;BME280;40419;47.438;19.026;2023-01-25T15:01:38;101016.75;;;2.40;100.00
54512;BME280;40419;47.438;19.026;2023-01-25T15:04:11;101019.06;;;2.45;100.00
54512;BME280;40419;47.438;19.026;2023-01-25T15:06:48;101004.47;;;2.38;100.00
54512;BME280;40419;47.438;19.026;2023-01-25T15:12:33;101009.47;;;2.31;100.00
54512;BME280;40419;47.438;19.026;2023-01-25T15:15:01;101018.34;;;2.32;100.00
54512;BME280;40419;47.438;19.026;2023-01-25T15:17:47;101015.06;;;2.39;100.00